Terminal Aerodrome Forecast
Issued by NWS Central Illinois

Home | Current Version | Previous Version | Text Only | Print | Product List | Glossary On
Versions: 1 2 3 4 5 6 7 8 9 10 11 12 13 14 15 16 17 18 19 20 21 22 23 24 25 26
952
FTUS43 KILX 290150 AAA
TAFPIA
TAF AMD
KPIA 290150Z 2902/2924 20012KT P6SM VCTS SCT050CB BKN080
     FM290300 19011KT P6SM SCT040 BKN150
     FM290900 23006KT P6SM SCT250
     FM291400 26011KT P6SM SCT040=

USA.gov is the U.S. government's official web portal to all federal, state and local government web resources and services.